Currently 48°F in Pinon Hills, California, USA
48°F
64°F / 46°F
3 mph SW
0.00"
Friday, November 17, 2017 8:46 PM PST

Pinon Hills, California Weather Summary
Last 36 Hours

Temperature Winds Hourly Humidity Dewpoint
Time Report Norm Report Norm Max Gusts Precip. Rpt. Norm Rpt. Norm Pressure
1Fri 08:46 PM  48.3°F  50°F  3 mph SW  3 mph  5 mph  0.00"  43%  40%  26°F  26°F  30.11"
3Fri 08:24 PM  46.0°F  50°F  4 mph SW  2 mph  5 mph  ----  53%  41%  29°F  26°F  30.12"
Fri 08:00 PM  47.4°F  51°F  2 mph SW  2 mph  12 mph  0.00"  57%  40%  32°F  26°F  30.10"
Fri 07:00 PM  53.3°F  51°F  8 mph W  2 mph  6 mph  0.00"  37%  40%  26°F  26°F  30.06"
Fri 06:00 PM  50.3°F  52°F  2 mph E  3 mph  5 mph  0.00"  77%  39%  43°F  27°F  30.07"
Fri 05:00 PM  52.6°F  54°F  2 mph NE  2 mph  8 mph  0.00"  74%  36%  44°F  27°F  30.06"
Fri 04:00 PM  57.4°F  60°F  5 mph NW  2 mph  14 mph  0.00"  64%  30%  45°F  27°F  30.05"
Fri 03:00 PM  58.7°F  62°F  8 mph W  4 mph  18 mph  0.00"  62%  27%  45°F  27°F  30.06"
Fri 02:00 PM  60.8°F  62°F  10 mph NW  4 mph  18 mph  0.00"  59%  27%  46°F  27°F  30.06"
Fri 01:00 PM  62.4°F  63°F  10 mph NW  4 mph  22 mph  0.00"  52%  27%  44°F  27°F  30.05"
Fri 12:00 PM  62.7°F  62°F  11 mph NW  5 mph  23 mph  0.00"  51%  28%  44°F  27°F  30.04"
2Fri 11:21 AM  63.9°F  61°F  11 mph W  4 mph  18 mph  ----  46%  29%  42°F  27°F  30.06"
Fri 11:00 AM  63.3°F  61°F  10 mph NW  5 mph  15 mph  0.00"  48%  30%  43°F  28°F  30.06"
Fri 10:00 AM  58.3°F  59°F  1 mph E  4 mph  8 mph  0.00"  56%  32%  42°F  28°F  30.08"
Fri 09:00 AM  55.3°F  57°F  calm  3 mph  6 mph  0.00"  62%  33%  42°F  27°F  30.08"
Fri 08:00 AM  54.5°F  55°F  calm  3 mph  4 mph  0.00"  64%  33%  42°F  25°F  30.08"
Fri 07:00 AM  55.0°F  49°F  1 mph NE  2 mph  4 mph  0.00"  60%  37%  41°F  23°F  30.07"
Fri 06:00 AM  55.2°F  49°F  calm  2 mph  14 mph  0.00"  58%  37%  40°F  23°F  30.03"
Fri 05:00 AM  58.5°F  48°F  5 mph SW  2 mph  21 mph  0.00"  59%  39%  44°F  23°F  30.01"
Fri 04:00 AM  59.8°F  49°F  calm  2 mph  11 mph  0.00"  51%  37%  41°F  23°F  30.00"
Fri 03:00 AM  58.7°F  49°F  4 mph W  2 mph  14 mph  0.00"  49%  37%  39°F  23°F  30.01"
Fri 02:00 AM  59.7°F  49°F  3 mph SW  2 mph  9 mph  0.00"  46%  37%  38°F  23°F  30.02"
Fri 01:00 AM  60.3°F  49°F  3 mph SW  2 mph  12 mph  0.00"  44%  37%  37°F  23°F  30.01"
Fri 12:00 AM  58.6°F  49°F  3 mph SW  2 mph  6 mph  0.00"  47%  38%  38°F  23°F  30.02"
Thu 11:00 PM  57.8°F  50°F  calm  3 mph  16 mph  0.00"  51%  39%  39°F  24°F  30.03"
Thu 10:00 PM  59.5°F  49°F  8 mph SW  2 mph  15 mph  0.00"  45%  39%  37°F  24°F  30.03"
Thu 09:00 PM  61.7°F  50°F  3 mph SW  2 mph  14 mph  0.00"  41%  39%  37°F  25°F  30.02"
Thu 08:00 PM  61.5°F  50°F  4 mph SW  2 mph  12 mph  0.00"  43%  39%  38°F  25°F  30.01"
Thu 07:00 PM  59.9°F  51°F  3 mph S  2 mph  9 mph  0.00"  44%  38%  37°F  25°F  30.01"
Thu 06:00 PM  60.4°F  52°F  calm  3 mph  11 mph  0.00"  49%  38%  40°F  26°F  30.03"
Thu 05:00 PM  62.7°F  54°F  3 mph SW  2 mph  9 mph  0.00"  39%  36%  36°F  26°F  30.00"
Thu 04:00 PM  64.7°F  60°F  7 mph SW  2 mph  15 mph  0.00"  36%  29%  36°F  26°F  29.98"
Thu 03:00 PM  66.0°F  62°F  6 mph S  3 mph  15 mph  0.00"  37%  27%  38°F  26°F  29.99"
Thu 02:00 PM  67.3°F  63°F  8 mph SW  4 mph  17 mph  0.00"  34%  26%  37°F  26°F  29.99"
Thu 01:00 PM  68.6°F  63°F  6 mph S  3 mph  18 mph  0.00"  34%  27%  38°F  26°F  30.01"
Thu 12:00 PM  69.0°F  62°F  calm  5 mph  7 mph  0.00"  32%  28%  37°F  27°F  30.01"
Thu 11:00 AM  66.0°F  60°F  3 mph E  4 mph  7 mph  0.00"  41%  30%  41°F  27°F  30.04"
Thu 10:00 AM  63.8°F  59°F  calm  3 mph  7 mph  0.00"  42%  32%  39°F  28°F  30.06"
Thu 09:00 AM  63.1°F  57°F  calm  3 mph  7 mph  0.00"  43%  32%  39°F  27°F  30.06"

  1. Current weather data. No green row appears if the current weather data is also the high or low for the current day.
  2. High temperature for the current day.
  3. Low temperature for the current day.

The Pinon Hills, California weather pages are a service of WeatherCurrents.
Copyright ©Fri Nov 17 20:47:08 PST 2017  WeatherCurrents. All rights reserved. - Submit questions and comments - Privacy Policy

This page automatically refreshes every 10 minutes.